createdAt,value
2019-03-23T00:00:57.867Z,9.39
2019-03-23T00:06:16.583Z,8.79
2019-03-23T00:11:35.265Z,8.81
2019-03-23T00:16:53.928Z,8.89
2019-03-23T00:22:12.578Z,8.82
2019-03-23T00:27:31.043Z,8.80
2019-03-23T00:32:49.596Z,9.02
2019-03-23T00:38:08.324Z,9.14
2019-03-23T00:43:26.925Z,8.98
2019-03-23T00:48:45.472Z,8.79
2019-03-23T00:54:04.088Z,8.32
2019-03-23T00:59:22.735Z,8.31
2019-03-23T01:04:41.348Z,8.47
2019-03-23T01:09:59.974Z,8.23
2019-03-23T01:15:18.691Z,8.02
2019-03-23T01:20:37.268Z,7.75
2019-03-23T01:25:56.003Z,7.51
2019-03-23T01:31:14.566Z,7.10
2019-03-23T01:36:33.265Z,6.92
2019-03-23T01:41:51.925Z,6.98
2019-03-23T01:47:10.549Z,7.15
2019-03-23T01:52:29.249Z,7.10
2019-03-23T01:57:47.990Z,7.14
2019-03-23T02:03:06.705Z,6.88
2019-03-23T02:08:25.336Z,6.80
2019-03-23T02:13:43.902Z,6.62
2019-03-23T02:19:02.521Z,6.69
2019-03-23T02:24:21.437Z,6.99
2019-03-23T02:29:40.066Z,6.88
2019-03-23T02:34:58.716Z,6.75
2019-03-23T02:40:17.369Z,6.68
2019-03-23T02:45:36.115Z,6.51
2019-03-23T02:50:54.744Z,6.50
2019-03-23T02:56:13.361Z,6.48
2019-03-23T03:01:32.025Z,6.44
2019-03-23T03:06:50.690Z,6.24
2019-03-23T03:12:09.275Z,6.22
2019-03-23T03:17:27.898Z,6.24
2019-03-23T03:22:46.548Z,6.21
2019-03-23T03:28:05.280Z,6.16
2019-03-23T03:33:23.931Z,6.09
2019-03-23T03:38:42.501Z,6.07
2019-03-23T03:44:01.256Z,6.00
2019-03-23T03:49:19.882Z,5.93
2019-03-23T03:54:38.555Z,5.93
2019-03-23T03:59:57.196Z,5.96
2019-03-23T04:05:16.039Z,5.97
2019-03-23T04:10:34.678Z,5.99
2019-03-23T04:15:53.306Z,5.99
2019-03-23T04:21:12.023Z,5.93
2019-03-23T04:26:30.676Z,5.88
2019-03-23T04:31:49.309Z,5.84
2019-03-23T04:37:11.837Z,5.78
2019-03-23T04:42:34.687Z,5.76
2019-03-23T04:47:53.270Z,5.74
2019-03-23T04:53:11.928Z,5.79
2019-03-23T04:58:30.650Z,5.69
2019-03-23T05:03:49.530Z,5.68
2019-03-23T05:09:09.292Z,5.74
2019-03-23T05:14:28.248Z,5.75
2019-03-23T05:19:46.705Z,5.75
2019-03-23T05:25:06.389Z,5.81
2019-03-23T05:30:25.123Z,5.82
2019-03-23T05:35:43.786Z,5.88
2019-03-23T05:41:02.514Z,5.90
2019-03-23T05:46:40.735Z,5.92
2019-03-23T05:52:05.836Z,5.94
2019-03-23T05:57:29.266Z,5.97
2019-03-23T06:02:47.958Z,6.05
2019-03-23T06:08:06.850Z,6.06
2019-03-23T06:13:25.501Z,6.07
2019-03-23T06:18:44.572Z,6.12
2019-03-23T06:24:08.705Z,6.17
2019-03-23T06:29:31.454Z,6.23
2019-03-23T06:34:50.083Z,6.36
2019-03-23T06:40:10.249Z,6.38
2019-03-23T06:45:28.737Z,6.42
2019-03-23T06:50:47.433Z,6.42
2019-03-23T06:56:06.030Z,6.48
2019-03-23T07:01:24.724Z,6.52
2019-03-23T07:06:43.287Z,6.59
2019-03-23T07:12:01.936Z,6.67
2019-03-23T07:17:20.565Z,6.68
2019-03-23T07:22:39.320Z,6.71
2019-03-23T07:27:58.016Z,6.76
2019-03-23T07:33:16.683Z,6.79
2019-03-23T07:38:35.523Z,6.83
2019-03-23T07:43:54.296Z,6.89
2019-03-23T07:49:13.025Z,6.96
2019-03-23T07:54:31.617Z,7.01
2019-03-23T07:59:50.265Z,7.10
2019-03-23T08:05:09.888Z,7.24
2019-03-23T08:10:32.777Z,7.43
2019-03-23T08:15:51.444Z,7.49
2019-03-23T08:21:10.096Z,7.65
2019-03-23T08:26:28.816Z,7.75
2019-03-23T08:31:47.456Z,7.91
2019-03-23T08:37:06.153Z,8.01
2019-03-23T08:42:24.914Z,8.33
2019-03-23T08:47:43.559Z,8.62
2019-03-23T08:53:02.273Z,8.77
2019-03-23T08:58:30.562Z,8.79
2019-03-23T09:03:52.762Z,8.78
2019-03-23T09:09:09.728Z,8.93
2019-03-23T09:14:28.358Z,8.83
2019-03-23T09:19:46.936Z,8.90
2019-03-23T09:25:06.943Z,8.88
2019-03-23T09:30:25.600Z,8.99
2019-03-23T09:35:44.258Z,8.98
2019-03-23T09:41:03.050Z,9.01
2019-03-23T09:46:21.693Z,8.95
2019-03-23T09:51:40.315Z,8.96
2019-03-23T09:56:59.672Z,8.87
2019-03-23T10:02:18.458Z,8.91
2019-03-23T10:07:37.113Z,8.77
2019-03-23T10:12:55.692Z,8.86
2019-03-23T10:18:14.233Z,8.97
2019-03-23T10:23:32.870Z,9.05
2019-03-23T10:28:51.519Z,9.27
2019-03-23T10:34:10.420Z,9.30
2019-03-23T10:39:29.252Z,9.34
2019-03-23T10:44:47.966Z,9.58
2019-03-23T10:50:07.106Z,9.57
2019-03-23T10:55:25.982Z,9.72
2019-03-23T11:00:44.614Z,9.62
2019-03-23T11:06:03.496Z,10.21
2019-03-23T11:11:22.148Z,10.61
2019-03-23T11:16:40.724Z,11.26
2019-03-23T11:21:59.462Z,11.81
2019-03-23T11:27:19.256Z,11.94
2019-03-23T11:32:43.028Z,12.06
2019-03-23T11:38:06.187Z,11.66
2019-03-23T11:43:32.651Z,11.97
2019-03-23T11:48:51.424Z,11.68
2019-03-23T11:54:10.443Z,11.58
2019-03-23T11:59:29.687Z,11.72
2019-03-23T12:04:58.363Z,12.12
2019-03-23T12:10:22.242Z,12.79
2019-03-23T12:15:40.920Z,12.39
2019-03-23T12:20:59.585Z,12.16
2019-03-23T12:26:18.329Z,13.08
2019-03-23T12:31:37.005Z,13.37
2019-03-23T12:36:55.585Z,13.19
2019-03-23T12:42:14.274Z,13.17
2019-03-23T12:47:33.005Z,13.03
2019-03-23T12:52:51.668Z,12.77
2019-03-23T12:58:10.339Z,13.34
2019-03-23T13:03:28.913Z,13.07
2019-03-23T13:08:47.603Z,13.16
2019-03-23T13:14:06.328Z,13.31
2019-03-23T13:19:25.072Z,13.35
2019-03-23T13:24:43.896Z,13.11
2019-03-23T13:30:02.798Z,13.22
2019-03-23T13:35:21.562Z,13.34
2019-03-23T13:40:40.179Z,13.33
2019-03-23T13:45:58.945Z,12.83
2019-03-23T13:51:17.712Z,12.60
2019-03-23T13:56:36.302Z,13.53
2019-03-23T14:01:54.953Z,13.32
2019-03-23T14:07:13.704Z,13.36
2019-03-23T14:12:32.374Z,13.19
2019-03-23T14:17:51.139Z,13.14
2019-03-23T14:23:09.720Z,13.07
2019-03-23T14:28:28.471Z,13.11
2019-03-23T14:33:47.118Z,12.81
2019-03-23T14:39:07.077Z,12.53
2019-03-23T14:44:25.675Z,12.40
2019-03-23T14:49:44.498Z,12.24
2019-03-23T14:55:03.315Z,12.11
2019-03-23T15:00:32.275Z,11.84
2019-03-23T15:05:52.107Z,11.84
2019-03-23T15:11:10.847Z,12.00
2019-03-23T15:16:29.481Z,12.05
2019-03-23T15:21:48.112Z,11.95
2019-03-23T15:27:06.847Z,11.93
2019-03-23T15:32:25.547Z,11.84
2019-03-23T15:37:44.410Z,11.82
2019-03-23T15:43:03.145Z,11.76
2019-03-23T15:48:21.789Z,11.78
2019-03-23T15:53:40.407Z,11.62
2019-03-23T15:58:59.132Z,11.64
2019-03-23T16:04:18.115Z,11.51
2019-03-23T16:09:36.780Z,11.51
2019-03-23T16:14:55.599Z,11.45
2019-03-23T16:20:14.830Z,11.33
2019-03-23T16:25:33.405Z,11.24
2019-03-23T16:30:52.125Z,11.14
2019-03-23T16:36:10.770Z,11.05
2019-03-23T16:41:29.417Z,11.04
2019-03-23T16:46:48.000Z,10.97
2019-03-23T16:52:06.745Z,10.98
2019-03-23T16:57:25.303Z,11.00
2019-03-23T17:02:44.060Z,10.95
2019-03-23T17:08:02.738Z,10.88
2019-03-23T17:13:21.367Z,10.78
2019-03-23T17:18:40.169Z,10.77
2019-03-23T17:23:58.750Z,10.67
2019-03-23T17:29:17.425Z,10.58
2019-03-23T17:34:36.011Z,10.58
2019-03-23T17:39:56.328Z,10.52
2019-03-23T17:45:15.019Z,10.35
2019-03-23T17:50:33.692Z,10.45
2019-03-23T17:55:52.324Z,10.21
2019-03-23T18:01:19.391Z,10.18
2019-03-23T18:06:34.517Z,10.22
2019-03-23T18:11:53.222Z,10.17
2019-03-23T18:17:11.863Z,10.06
2019-03-23T18:22:30.566Z,10.07
2019-03-23T18:27:49.234Z,10.14
2019-03-23T18:33:08.402Z,10.15
2019-03-23T18:38:27.033Z,10.24
2019-03-23T18:43:50.065Z,10.16
2019-03-23T18:49:10.973Z,10.06
2019-03-23T18:54:29.781Z,9.97
2019-03-23T18:59:55.941Z,9.85
2019-03-23T19:05:14.738Z,9.69
2019-03-23T19:10:36.078Z,9.60
2019-03-23T19:15:54.847Z,9.58
2019-03-23T19:21:15.172Z,9.64
2019-03-23T19:26:39.448Z,9.51
2019-03-23T19:32:06.665Z,9.54
2019-03-23T19:37:26.895Z,9.36
2019-03-23T19:42:47.858Z,9.36
2019-03-23T19:48:06.700Z,9.33
2019-03-23T19:53:27.510Z,9.31
2019-03-23T19:58:46.964Z,9.27
2019-03-23T20:04:07.020Z,9.24
2019-03-23T20:09:28.081Z,9.23
2019-03-23T20:14:48.407Z,9.21
2019-03-23T20:20:12.319Z,9.23
2019-03-23T20:25:33.785Z,9.20
2019-03-23T20:30:55.640Z,9.21
2019-03-23T20:36:15.318Z,9.19
2019-03-23T20:41:34.134Z,9.20
2019-03-23T20:46:53.214Z,9.21
2019-03-23T20:52:11.928Z,9.19
2019-03-23T20:57:37.411Z,9.22
2019-03-23T21:02:52.298Z,9.13
2019-03-23T21:08:11.526Z,9.14
2019-03-23T21:13:31.039Z,9.11
2019-03-23T21:18:49.605Z,9.07
2019-03-23T21:24:08.260Z,8.96
2019-03-23T21:29:26.860Z,8.95
2019-03-23T21:34:45.430Z,8.90
2019-03-23T21:45:39.533Z,8.83
2019-03-23T21:50:58.096Z,8.80
2019-03-23T21:56:16.717Z,8.74
2019-03-23T22:01:35.194Z,8.73
2019-03-23T22:06:53.761Z,8.67
2019-03-23T22:12:12.362Z,8.65
2019-03-23T22:17:30.938Z,8.65
2019-03-23T22:22:49.548Z,8.61
2019-03-23T22:28:08.187Z,8.58
2019-03-23T22:33:26.894Z,8.54
2019-03-23T22:38:45.505Z,8.57
2019-03-23T22:44:04.264Z,8.54
2019-03-23T22:49:22.808Z,8.50
2019-03-23T22:54:41.439Z,8.48
2019-03-23T22:59:59.994Z,8.44
2019-03-23T23:05:18.689Z,8.38
2019-03-23T23:10:37.339Z,8.34
2019-03-23T23:15:55.979Z,8.29
2019-03-23T23:21:14.631Z,8.28
2019-03-23T23:26:33.186Z,8.29
2019-03-23T23:31:52.014Z,8.22
2019-03-23T23:37:10.652Z,8.17
2019-03-23T23:42:29.144Z,8.13
2019-03-23T23:47:47.796Z,8.07
2019-03-23T23:53:06.413Z,7.97
2019-03-23T23:58:25.023Z,7.92
